Milbank, SD (57252)

7:51 PM CDT on August 01, 2014 (GMT -0500)
Ortonville Municipal-Martinson (KVVV) Elev 1099 ft | 45.31 °N, 96.42 °W | Change Station

Current weather conditions updated 17 minutes ago

Clear
Clear
81 °F
Feels Like 82 °F
N
0
Wind Variable Wind from North

Tomorrow is forecast to be Warmer than today. Late night thunderstorms tomorrow night.

Today
High -- | Low -- °F
--% Chance of Precip.
Yesterday
High -- | Low -- °F
Precip. -- in
6:11 AM 8:53 PM
Waxing Crescent, 30% visible
Pressure 30.07 in
Visibility 10.0 miles
Clouds Clear
Heat Index 82 °F
Dew Point 61 °F
Humidity 51%
Rainfall 0.00 in
Snow Depth Not available.
UV 1 out of 12
Pollen 7.80 out of 12
Air Quality Not available.
Flu Activity Not available.
METAR KVVV 020034Z AUTO 00000KT 10SM CLR 27/16 A3007 RMK AO2

More Conditions Fewer Conditions

Pressure 30.07 in
Visibility 10.0 miles
Clouds Clear
Heat Index 82 °F
Dew Point 61 °F
Humidity 51%
Rainfall 0.00 in
Snow Depth Not available.
UV 1 out of 12
Pollen 7.80 out of 12
Air Quality Not available.
Flu Activity Not available.
METAR KVVV 020034Z AUTO 00000KT 10SM CLR 27/16 A3007 RMK AO2

More Conditions Fewer Conditions

10-Day Weather Forecast

Almanac

Astronomy

Aug. 01, 2014 Rise Set
Actual Time 6:11 AM CDT 8:53 PM CDT
Civil Twilight 5:37 AM CDT 9:27 PM CDT
Nautical Twilight 4:54 AM CDT 10:10 PM CDT
Astronomical Twilight 4:04 AM CDT 10:59 PM CDT
Moon 11:53 AM CDT (8/1) 11:20 PM CDT (8/1)
Length of Visible Light 15h 50m
Length of Day
14h 42m
Tomorrow will be 2m 27s shorter.
Waxing Crescent, 30% of the Moon is Illuminated
Today
Waxing Crescent
Aug 3
First Quarter
Aug 10
Full
Aug 17
Last Quarter
Aug 25
New

Today's Extremes

State Highs State Lows

Community

WunderPhotos

Upload Photos

1,739,777 photos uploaded!

Nearby

Snow Depth

Station Depth Elevation
Blind Park 0 in 6890 ft

Earthquake Activity

City Distance Mag. Time & Date
No recent earthquake activity has been reported nearby.
Minimum magnitude displayed is 2.5.

Coastal Water Temperatures

Place Temperature
No Stations Reporting

Nearby Weather Stations

Station Location Temp. Heat Index Dew Point Humidity Wind Precip. Elev Updated Type
Linden Beach, Corona, SD 80.4 °F 83 °F 66 °F 62% SSW  at  0.0 mph 0.00 in / hr 974 ft 7:51 PM CDT Rapid Fire
RAWS BIG STONE NWR MN, Odessa, MN 82 °F 82 °F 59 °F 46% NNW  at  4 mph 0.00 in / hr 877 ft 6:51 PM CDT MADIS
Rural Summit, Summit, SD 75.9 °F 78 °F 63 °F 64% East  at  0.0 mph - / hr 1913 ft 7:38 PM CDT Normal

Show More Stations Show Fewer Stations